F/V Renaissance II — FMEW — position and weather

sailwx.info

Track history (hours):
 
Tides and Currents Weather Stations Pressure Air Temp Water Temp Dewpoint Dewpoint Depression Visibility Wind Speed Wind Dir Waves Ship Positions

F/V Renaissance II

Last reported at 2015-Sep-04 02:33 UTC. Time now 2015-Sep-05 01:12 UTC.
Position N 46°22' W 002°11'.

Length 18 m.

Type: Fishing. MMSI: 228216600.

Date/timePositionNaut miles runAvg speedWind from/ knotsBaromVisibWave heightAir tempDewpointWater temp
2015-Sep-04 02:33N 46°22' W 002°11'3 3.4
2015-Sep-04 01:34N 46°23' W 002°07'4 3.8
2015-Sep-04 00:34N 46°25' W 002°02'4 4.3
2015-Sep-03 23:33N 46°26' W 001°56'4 4.3
2015-Sep-03 22:33N 46°28' W 001°50'3 2.7
2015-Sep-03 21:33N 46°30' W 001°47'0 0.2
2015-Sep-03 20:33N 46°30' W 001°47'2 1.7
2015-Sep-03 19:33N 46°28' W 001°48'9 9.4
2015-Sep-03 18:33N 46°31' W 002°01'22 0.6
2015-Sep-02 05:25N 46°49' W 002°20'8 9.3
2015-Sep-02 04:31N 46°42' W 002°12'9 9.6
2015-Sep-02 03:33N 46°36' W 002°03'10 9.8
2015-Sep-02 02:33N 46°29' W 001°52'3 3.5
2015-Sep-02 01:33N 46°30' W 001°47'0 0.0
2015-Sep-02 00:33N 46°30' W 001°47'0 0.0
2015-Sep-01 23:33N 46°30' W 001°47'0 0.0
2015-Sep-01 22:33N 46°30' W 001°47'0 0.0
2015-Sep-01 21:34N 46°30' W 001°47'0 0.0
2015-Sep-01 20:34N 46°30' W 001°47'0 0.0
2015-Sep-01 19:33N 46°30' W 001°47'0 0.0
2015-Sep-01 18:33N 46°30' W 001°47'0 0.0
2015-Sep-01 17:33N 46°30' W 001°47'0 0.0
2015-Sep-01 16:33N 46°30' W 001°47'0 0.0
2015-Sep-01 15:33N 46°30' W 001°47'0 0.0
2015-Sep-01 14:34N 46°30' W 001°47'0 0.0
2015-Sep-01 13:33N 46°30' W 001°47'0 0.0
2015-Sep-01 12:33N 46°30' W 001°47'0 0.0
2015-Sep-01 11:33N 46°30' W 001°47'0 0.0
2015-Sep-01 10:33N 46°30' W 001°47'0 0.0
2015-Sep-01 09:33N 46°30' W 001°47'0 0.0
2015-Sep-01 08:34N 46°30' W 001°47'0 0.0
2015-Sep-01 07:33N 46°30' W 001°47'0 0.0
2015-Sep-01 06:33N 46°30' W 001°47'0 0.0
2015-Sep-01 05:33N 46°30' W 001°47'0 0.0
2015-Sep-01 04:33N 46°30' W 001°47'0 0.0
2015-Sep-01 03:33N 46°30' W 001°47'0 0.0
2015-Sep-01 02:33N 46°30' W 001°47'0 0.0
2015-Sep-01 01:33N 46°30' W 001°47'0 0.0
2015-Sep-01 00:33N 46°30' W 001°47'0 0.0
2015-Aug-31 23:33N 46°30' W 001°47'0 0.0
2015-Aug-31 22:33N 46°30' W 001°47'0 0.0
2015-Aug-31 21:33N 46°30' W 001°47'0 0.0
2015-Aug-31 20:33N 46°30' W 001°47'0 0.1
2015-Aug-31 19:33N 46°30' W 001°47'3 3.0
2015-Aug-31 18:33N 46°28' W 001°51'10 9.8
2015-Aug-31 17:33N 46°29' W 002°05'2 2.4
2015-Aug-31 16:33N 46°29' W 002°08'1 0.6
2015-Aug-31 15:33N 46°30' W 002°08'1 0.6
2015-Aug-31 14:33N 46°30' W 002°09'3 2.6
2015-Aug-31 13:29N 46°31' W 002°13'2 1.5
2015-Aug-31 12:17N 46°31' W 002°16'1 1.2
2015-Aug-31 11:32N 46°30' W 002°16'1 0.5
2015-Aug-31 10:21N 46°31' W 002°16'0 0.3
2015-Aug-31 09:30N 46°31' W 002°16'0 0.5
2015-Aug-31 08:32N 46°30' W 002°16'2 2.0
2015-Aug-31 07:28N 46°32' W 002°14'2 1.9
2015-Aug-31 06:33N 46°30' W 002°13'1 0.7
2015-Aug-31 05:28N 46°31' W 002°14'6 6.1
2015-Aug-31 04:33N 46°30' W 002°06'9 8.9
2015-Aug-31 03:33N 46°29' W 001°53'4 4.2
2015-Aug-31 02:34N 46°30' W 001°48'0 0.0
2015-Aug-31 01:33N 46°30' W 001°48'0 0.0
2015-Aug-31 00:34N 46°30' W 001°48'0 0.0
2015-Aug-30 23:33N 46°30' W 001°48'0 0.0
2015-Aug-30 22:33N 46°30' W 001°48'0 0.0
2015-Aug-30 21:34N 46°30' W 001°48'0 0.0
2015-Aug-30 20:34N 46°30' W 001°48'0 0.0
2015-Aug-30 19:33N 46°30' W 001°48'0 0.0
2015-Aug-30 18:33N 46°30' W 001°48'0 0.3
2015-Aug-30 17:33N 46°30' W 001°48'9 8.8
2015-Aug-30 16:33N 46°23' W 001°56'1 1.3
2015-Aug-30 15:33N 46°23' W 001°58'2 1.6
2015-Aug-30 14:33N 46°23' W 001°56'1 0.9
2015-Aug-30 13:33N 46°23' W 001°57'1 0.6
2015-Aug-30 12:33N 46°23' W 001°56'1 1.1
2015-Aug-30 11:33N 46°22' W 001°58'2 1.6
2015-Aug-30 10:33N 46°21' W 001°58'2 2.1
2015-Aug-30 09:33N 46°23' W 001°56'1 1.0
2015-Aug-30 08:33N 46°22' W 001°57'1 0.8
2015-Aug-30 07:33N 46°21' W 001°56'0 0.1
2015-Aug-30 06:33N 46°21' W 001°56'1 0.7
2015-Aug-30 05:33N 46°22' W 001°55'5 5.3
2015-Aug-30 04:34N 46°26' W 001°51'5 4.8
2015-Aug-30 03:33N 46°30' W 001°47'0 0.1
2015-Aug-30 02:33N 46°30' W 001°47'0 0.0
2015-Aug-30 01:33N 46°30' W 001°47'0 0.0
2015-Aug-30 00:33N 46°30' W 001°47'0 0.0
2015-Aug-29 23:34N 46°30' W 001°47'0 0.0
2015-Aug-29 22:33N 46°30' W 001°47'0 0.0
2015-Aug-29 21:33N 46°30' W 001°47'0 0.0
2015-Aug-29 20:33N 46°30' W 001°47'0 0.0
2015-Aug-29 19:33N 46°30' W 001°47'0 0.0
2015-Aug-29 18:33N 46°30' W 001°47'8 8.1
2015-Aug-29 17:33N 46°25' W 001°56'2 1.7
2015-Aug-29 16:33N 46°24' W 001°59'0 0.0
2015-Aug-29 15:33N 46°25' W 001°59'2 1.8
2015-Aug-29 14:33N 46°24' W 002°02'6 4.0
2015-Aug-29 13:06N 46°23' W 002°10'2 1.3
2015-Aug-29 11:24N 46°21' W 002°12'2 2.5
2015-Aug-29 10:29N 46°22' W 002°15'0 0.3
2015-Aug-29 09:28N 46°23' W 002°15'1 1.3
2015-Aug-29 08:18N 46°22' W 002°13'0 0.2
2015-Aug-29 06:33N 46°22' W 002°12'9 9.4
2015-Aug-29 05:33N 46°25' W 001°59'9 9.1
2015-Aug-29 04:33N 46°29' W 001°47'1 1.1
2015-Aug-29 03:33N 46°30' W 001°47'0 0.1
2015-Aug-29 02:33N 46°30' W 001°48'0 0.0
2015-Aug-29 01:33N 46°30' W 001°48'0 0.0
2015-Aug-29 00:33N 46°30' W 001°48'0 0.0
2015-Aug-28 23:33N 46°30' W 001°48'0 0.0
2015-Aug-28 22:33N 46°30' W 001°48'0 0.0
2015-Aug-28 21:33N 46°30' W 001°48'0 0.0
2015-Aug-28 20:33N 46°30' W 001°48'0 0.0
2015-Aug-28 19:33N 46°30' W 001°48'0 0.0
2015-Aug-28 18:33N 46°30' W 001°48'0 0.0
2015-Aug-28 17:33N 46°30' W 001°48'0 0.0
2015-Aug-28 16:33N 46°30' W 001°48'0 0.0
2015-Aug-28 15:33N 46°30' W 001°48'0 0.0
2015-Aug-28 14:34N 46°30' W 001°48'0 0.0
2015-Aug-28 13:33N 46°30' W 001°48'0 0.0
2015-Aug-28 12:33N 46°30' W 001°48'0 0.0
2015-Aug-28 11:33N 46°30' W 001°48'0 0.0
2015-Aug-28 10:33N 46°30' W 001°48'0 0.0
2015-Aug-28 09:34N 46°30' W 001°48'0 0.0
2015-Aug-28 08:33N 46°30' W 001°48'0 0.0
2015-Aug-28 07:33N 46°30' W 001°48'0 0.0
2015-Aug-28 06:33N 46°30' W 001°48'0 0.0
2015-Aug-28 05:33N 46°30' W 001°48'0 0.0
2015-Aug-28 04:34N 46°30' W 001°48'0 0.0
2015-Aug-28 03:33N 46°30' W 001°48'0 0.0
2015-Aug-28 02:33N 46°30' W 001°48'0 0.0
2015-Aug-28 01:33N 46°30' W 001°48'0 0.0
2015-Aug-28 00:33N 46°30' W 001°48'0 0.0
2015-Aug-27 23:33N 46°30' W 001°48'0 0.0
2015-Aug-27 22:33N 46°30' W 001°48'0 0.0
2015-Aug-27 21:33N 46°30' W 001°48'0 0.0
2015-Aug-27 20:33N 46°30' W 001°48'0 0.0
2015-Aug-27 19:34N 46°30' W 001°48'0 0.0
2015-Aug-27 18:33N 46°30' W 001°48'0 0.0
2015-Aug-27 17:33N 46°30' W 001°48'0 0.0
2015-Aug-27 16:33N 46°30' W 001°48'0 0.0
2015-Aug-27 15:33N 46°30' W 001°48'3 3.4
2015-Aug-27 14:33N 46°27' W 001°51'16 6.9
2015-Aug-27 12:15N 46°20' W 002°12'2 0.2
2015-Aug-27 03:32N 46°22' W 002°10'1 0.8
2015-Aug-27 02:33N 46°22' W 002°09'5 4.6
2015-Aug-27 01:32N 46°24' W 002°02'4 4.3
2015-Aug-27 00:33N 46°26' W 001°57'4 4.1
2015-Aug-26 23:34N 46°27' W 001°52'4 3.8
2015-Aug-26 22:33N 46°30' W 001°47'0 0.3
2015-Aug-26 21:33N 46°30' W 001°48'6 6.3
2015-Aug-26 20:33N 46°26' W 001°55'8 8.2
2015-Aug-26 19:33N 46°23' W 002°06'6 2.8
2015-Aug-26 17:29N 46°20' W 002°13'1 1.1
2015-Aug-26 16:31N 46°21' W 002°14'3 0.8
2015-Aug-26 13:22N 46°22' W 002°10'1 0.8
2015-Aug-26 12:34N 46°22' W 002°11'1 1.1
2015-Aug-26 11:26N 46°22' W 002°13'1 0.2
2015-Aug-26 08:27N 46°22' W 002°13'1 1.0
2015-Aug-26 07:31N 46°22' W 002°12'2 1.0
2015-Aug-26 05:33N 46°21' W 002°10'1 1.1
2015-Aug-26 04:33N 46°22' W 002°10'0 0.2
2015-Aug-26 02:26N 46°22' W 002°10'3 3.0
2015-Aug-26 01:34N 46°23' W 002°07'5 4.9
2015-Aug-26 00:33N 46°25' W 002°00'5 4.9
2015-Aug-25 23:33N 46°27' W 001°54'5 4.8
2015-Aug-25 22:33N 46°29' W 001°47'1 1.3
2015-Aug-25 21:34N 46°30' W 001°47'7 6.7
2015-Aug-25 20:33N 46°23' W 001°49'9 8.9
2015-Aug-25 19:33N 46°15' W 001°52'6 0.6
2015-Aug-25 09:31N 46°09' W 001°52'5 1.4
2015-Aug-25 06:09N 46°13' W 001°56'0 0.6
2015-Aug-25 05:33N 46°13' W 001°56'8 8.2
2015-Aug-25 04:33N 46°21' W 001°51'8 8.4
2015-Aug-25 03:33N 46°29' W 001°47'1 1.2
2015-Aug-25 02:33N 46°30' W 001°47'  
Track history (hours):
 
Tides and Currents Weather Stations Pressure Air Temp Water Temp Dewpoint Dewpoint Depression Visibility Wind Speed Wind Dir Waves Ship Positions

F/V Renaissance II

Last reported at 2015-Sep-04 02:33 UTC. Time now 2015-Sep-05 01:12 UTC.
Position N 46°22' W 002°11'.

Length 18 m.

Type: Fishing. MMSI: 228216600.

Date/timePositionNaut miles runAvg speedWind from/ knotsBaromVisibWave heightAir tempDewpointWater temp
2015-Sep-04 02:33N 46°22' W 002°11'3 3.4
2015-Sep-04 01:34N 46°23' W 002°07'4 3.8
2015-Sep-04 00:34N 46°25' W 002°02'4 4.3
2015-Sep-03 23:33N 46°26' W 001°56'4 4.3
2015-Sep-03 22:33N 46°28' W 001°50'3 2.7
2015-Sep-03 21:33N 46°30' W 001°47'0 0.2
2015-Sep-03 20:33N 46°30' W 001°47'2 1.7
2015-Sep-03 19:33N 46°28' W 001°48'9 9.4
2015-Sep-03 18:33N 46°31' W 002°01'22 0.6
2015-Sep-02 05:25N 46°49' W 002°20'8 9.3
2015-Sep-02 04:31N 46°42' W 002°12'9 9.6
2015-Sep-02 03:33N 46°36' W 002°03'10 9.8
2015-Sep-02 02:33N 46°29' W 001°52'3 3.5
2015-Sep-02 01:33N 46°30' W 001°47'0 0.0
2015-Sep-02 00:33N 46°30' W 001°47'0 0.0
2015-Sep-01 23:33N 46°30' W 001°47'0 0.0
2015-Sep-01 22:33N 46°30' W 001°47'0 0.0
2015-Sep-01 21:34N 46°30' W 001°47'0 0.0
2015-Sep-01 20:34N 46°30' W 001°47'0 0.0
2015-Sep-01 19:33N 46°30' W 001°47'0 0.0
2015-Sep-01 18:33N 46°30' W 001°47'0 0.0
2015-Sep-01 17:33N 46°30' W 001°47'0 0.0
2015-Sep-01 16:33N 46°30' W 001°47'0 0.0
2015-Sep-01 15:33N 46°30' W 001°47'0 0.0
2015-Sep-01 14:34N 46°30' W 001°47'0 0.0
2015-Sep-01 13:33N 46°30' W 001°47'0 0.0
2015-Sep-01 12:33N 46°30' W 001°47'0 0.0
2015-Sep-01 11:33N 46°30' W 001°47'0 0.0
2015-Sep-01 10:33N 46°30' W 001°47'0 0.0
2015-Sep-01 09:33N 46°30' W 001°47'0 0.0
2015-Sep-01 08:34N 46°30' W 001°47'0 0.0
2015-Sep-01 07:33N 46°30' W 001°47'0 0.0
2015-Sep-01 06:33N 46°30' W 001°47'0 0.0
2015-Sep-01 05:33N 46°30' W 001°47'0 0.0
2015-Sep-01 04:33N 46°30' W 001°47'0 0.0
2015-Sep-01 03:33N 46°30' W 001°47'0 0.0
2015-Sep-01 02:33N 46°30' W 001°47'0 0.0
2015-Sep-01 01:33N 46°30' W 001°47'0 0.0
2015-Sep-01 00:33N 46°30' W 001°47'0 0.0
2015-Aug-31 23:33N 46°30' W 001°47'0 0.0
2015-Aug-31 22:33N 46°30' W 001°47'0 0.0
2015-Aug-31 21:33N 46°30' W 001°47'0 0.0
2015-Aug-31 20:33N 46°30' W 001°47'0 0.1
2015-Aug-31 19:33N 46°30' W 001°47'3 3.0
2015-Aug-31 18:33N 46°28' W 001°51'10 9.8
2015-Aug-31 17:33N 46°29' W 002°05'2 2.4
2015-Aug-31 16:33N 46°29' W 002°08'1 0.6
2015-Aug-31 15:33N 46°30' W 002°08'1 0.6
2015-Aug-31 14:33N 46°30' W 002°09'3 2.6
2015-Aug-31 13:29N 46°31' W 002°13'2 1.5
2015-Aug-31 12:17N 46°31' W 002°16'1 1.2
2015-Aug-31 11:32N 46°30' W 002°16'1 0.5
2015-Aug-31 10:21N 46°31' W 002°16'0 0.3
2015-Aug-31 09:30N 46°31' W 002°16'0 0.5
2015-Aug-31 08:32N 46°30' W 002°16'2 2.0
2015-Aug-31 07:28N 46°32' W 002°14'2 1.9
2015-Aug-31 06:33N 46°30' W 002°13'1 0.7
2015-Aug-31 05:28N 46°31' W 002°14'6 6.1
2015-Aug-31 04:33N 46°30' W 002°06'9 8.9
2015-Aug-31 03:33N 46°29' W 001°53'4 4.2
2015-Aug-31 02:34N 46°30' W 001°48'0 0.0
2015-Aug-31 01:33N 46°30' W 001°48'0 0.0
2015-Aug-31 00:34N 46°30' W 001°48'0 0.0
2015-Aug-30 23:33N 46°30' W 001°48'0 0.0
2015-Aug-30 22:33N 46°30' W 001°48'0 0.0
2015-Aug-30 21:34N 46°30' W 001°48'0 0.0
2015-Aug-30 20:34N 46°30' W 001°48'0 0.0
2015-Aug-30 19:33N 46°30' W 001°48'0 0.0
2015-Aug-30 18:33N 46°30' W 001°48'0 0.3
2015-Aug-30 17:33N 46°30' W 001°48'9 8.8
2015-Aug-30 16:33N 46°23' W 001°56'1 1.3
2015-Aug-30 15:33N 46°23' W 001°58'2 1.6
2015-Aug-30 14:33N 46°23' W 001°56'1 0.9
2015-Aug-30 13:33N 46°23' W 001°57'1 0.6
2015-Aug-30 12:33N 46°23' W 001°56'1 1.1
2015-Aug-30 11:33N 46°22' W 001°58'2 1.6
2015-Aug-30 10:33N 46°21' W 001°58'2 2.1
2015-Aug-30 09:33N 46°23' W 001°56'1 1.0
2015-Aug-30 08:33N 46°22' W 001°57'1 0.8
2015-Aug-30 07:33N 46°21' W 001°56'0 0.1
2015-Aug-30 06:33N 46°21' W 001°56'1 0.7
2015-Aug-30 05:33N 46°22' W 001°55'5 5.3
2015-Aug-30 04:34N 46°26' W 001°51'5 4.8
2015-Aug-30 03:33N 46°30' W 001°47'0 0.1
2015-Aug-30 02:33N 46°30' W 001°47'0 0.0
2015-Aug-30 01:33N 46°30' W 001°47'0 0.0
2015-Aug-30 00:33N 46°30' W 001°47'0 0.0
2015-Aug-29 23:34N 46°30' W 001°47'0 0.0
2015-Aug-29 22:33N 46°30' W 001°47'0 0.0
2015-Aug-29 21:33N 46°30' W 001°47'0 0.0
2015-Aug-29 20:33N 46°30' W 001°47'0 0.0
2015-Aug-29 19:33N 46°30' W 001°47'0 0.0
2015-Aug-29 18:33N 46°30' W 001°47'8 8.1
2015-Aug-29 17:33N 46°25' W 001°56'2 1.7
2015-Aug-29 16:33N 46°24' W 001°59'0 0.0
2015-Aug-29 15:33N 46°25' W 001°59'2 1.8
2015-Aug-29 14:33N 46°24' W 002°02'6 4.0
2015-Aug-29 13:06N 46°23' W 002°10'2 1.3
2015-Aug-29 11:24N 46°21' W 002°12'2 2.5
2015-Aug-29 10:29N 46°22' W 002°15'0 0.3
2015-Aug-29 09:28N 46°23' W 002°15'1 1.3
2015-Aug-29 08:18N 46°22' W 002°13'0 0.2
2015-Aug-29 06:33N 46°22' W 002°12'9 9.4
2015-Aug-29 05:33N 46°25' W 001°59'9 9.1
2015-Aug-29 04:33N 46°29' W 001°47'1 1.1
2015-Aug-29 03:33N 46°30' W 001°47'0 0.1
2015-Aug-29 02:33N 46°30' W 001°48'0 0.0
2015-Aug-29 01:33N 46°30' W 001°48'0 0.0
2015-Aug-29 00:33N 46°30' W 001°48'0 0.0
2015-Aug-28 23:33N 46°30' W 001°48'0 0.0
2015-Aug-28 22:33N 46°30' W 001°48'0 0.0
2015-Aug-28 21:33N 46°30' W 001°48'0 0.0
2015-Aug-28 20:33N 46°30' W 001°48'0 0.0
2015-Aug-28 19:33N 46°30' W 001°48'0 0.0
2015-Aug-28 18:33N 46°30' W 001°48'0 0.0
2015-Aug-28 17:33N 46°30' W 001°48'0 0.0
2015-Aug-28 16:33N 46°30' W 001°48'0 0.0
2015-Aug-28 15:33N 46°30' W 001°48'0 0.0
2015-Aug-28 14:34N 46°30' W 001°48'0 0.0
2015-Aug-28 13:33N 46°30' W 001°48'0 0.0
2015-Aug-28 12:33N 46°30' W 001°48'0 0.0
2015-Aug-28 11:33N 46°30' W 001°48'0 0.0
2015-Aug-28 10:33N 46°30' W 001°48'0 0.0
2015-Aug-28 09:34N 46°30' W 001°48'0 0.0
2015-Aug-28 08:33N 46°30' W 001°48'0 0.0
2015-Aug-28 07:33N 46°30' W 001°48'0 0.0
2015-Aug-28 06:33N 46°30' W 001°48'0 0.0
2015-Aug-28 05:33N 46°30' W 001°48'0 0.0
2015-Aug-28 04:34N 46°30' W 001°48'0 0.0
2015-Aug-28 03:33N 46°30' W 001°48'0 0.0
2015-Aug-28 02:33N 46°30' W 001°48'0 0.0
2015-Aug-28 01:33N 46°30' W 001°48'0 0.0
2015-Aug-28 00:33N 46°30' W 001°48'0 0.0
2015-Aug-27 23:33N 46°30' W 001°48'0 0.0
2015-Aug-27 22:33N 46°30' W 001°48'0 0.0
2015-Aug-27 21:33N 46°30' W 001°48'0 0.0
2015-Aug-27 20:33N 46°30' W 001°48'0 0.0
2015-Aug-27 19:34N 46°30' W 001°48'0 0.0
2015-Aug-27 18:33N 46°30' W 001°48'0 0.0
2015-Aug-27 17:33N 46°30' W 001°48'0 0.0
2015-Aug-27 16:33N 46°30' W 001°48'0 0.0
2015-Aug-27 15:33N 46°30' W 001°48'3 3.4
2015-Aug-27 14:33N 46°27' W 001°51'16 6.9
2015-Aug-27 12:15N 46°20' W 002°12'2 0.2
2015-Aug-27 03:32N 46°22' W 002°10'1 0.8
2015-Aug-27 02:33N 46°22' W 002°09'5 4.6
2015-Aug-27 01:32N 46°24' W 002°02'4 4.3
2015-Aug-27 00:33N 46°26' W 001°57'4 4.1
2015-Aug-26 23:34N 46°27' W 001°52'4 3.8
2015-Aug-26 22:33N 46°30' W 001°47'0 0.3
2015-Aug-26 21:33N 46°30' W 001°48'6 6.3
2015-Aug-26 20:33N 46°26' W 001°55'8 8.2
2015-Aug-26 19:33N 46°23' W 002°06'6 2.8
2015-Aug-26 17:29N 46°20' W 002°13'1 1.1
2015-Aug-26 16:31N 46°21' W 002°14'3 0.8
2015-Aug-26 13:22N 46°22' W 002°10'1 0.8
2015-Aug-26 12:34N 46°22' W 002°11'1 1.1
2015-Aug-26 11:26N 46°22' W 002°13'1 0.2
2015-Aug-26 08:27N 46°22' W 002°13'1 1.0
2015-Aug-26 07:31N 46°22' W 002°12'2 1.0
2015-Aug-26 05:33N 46°21' W 002°10'1 1.1
2015-Aug-26 04:33N 46°22' W 002°10'0 0.2
2015-Aug-26 02:26N 46°22' W 002°10'3 3.0
2015-Aug-26 01:34N 46°23' W 002°07'5 4.9
2015-Aug-26 00:33N 46°25' W 002°00'5 4.9
2015-Aug-25 23:33N 46°27' W 001°54'5 4.8
2015-Aug-25 22:33N 46°29' W 001°47'1 1.3
2015-Aug-25 21:34N 46°30' W 001°47'7 6.7
2015-Aug-25 20:33N 46°23' W 001°49'9 8.9
2015-Aug-25 19:33N 46°15' W 001°52'6 0.6
2015-Aug-25 09:31N 46°09' W 001°52'5 1.4
2015-Aug-25 06:09N 46°13' W 001°56'0 0.6
2015-Aug-25 05:33N 46°13' W 001°56'8 8.2
2015-Aug-25 04:33N 46°21' W 001°51'8 8.4
2015-Aug-25 03:33N 46°29' W 001°47'1 1.2
2015-Aug-25 02:33N 46°30' W 001°47'  

Dump ship's entire track history